sensor_id;sensor_type;location;lat;lon;timestamp;P1;durP1;ratioP1;P2;durP2;ratioP2
48847;SDS011;36611;51.638;5.784;2023-02-19T00:01:23;27.40;;;17.52;;
48847;SDS011;36611;51.638;5.784;2023-02-19T00:04:00;29.95;;;17.77;;
48847;SDS011;36611;51.638;5.784;2023-02-19T00:06:32;29.65;;;18.00;;
48847;SDS011;36611;51.638;5.784;2023-02-19T00:09:00;28.50;;;15.85;;
48847;SDS011;36611;51.638;5.784;2023-02-19T00:11:28;25.25;;;16.75;;
48847;SDS011;36611;51.638;5.784;2023-02-19T00:13:57;29.17;;;16.38;;
48847;SDS011;36611;51.638;5.784;2023-02-19T00:19:02;25.92;;;15.43;;
48847;SDS011;36611;51.638;5.784;2023-02-19T00:21:31;22.27;;;14.60;;
48847;SDS011;36611;51.638;5.784;2023-02-19T00:24:00;28.95;;;15.35;;
48847;SDS011;36611;51.638;5.784;2023-02-19T00:26:28;23.05;;;14.52;;
48847;SDS011;36611;51.638;5.784;2023-02-19T00:28:56;28.45;;;15.15;;
48847;SDS011;36611;51.638;5.784;2023-02-19T00:31:27;24.92;;;14.48;;
48847;SDS011;36611;51.638;5.784;2023-02-19T00:34:03;22.92;;;16.05;;
48847;SDS011;36611;51.638;5.784;2023-02-19T00:36:32;26.27;;;14.77;;
48847;SDS011;36611;51.638;5.784;2023-02-19T00:39:01;27.00;;;14.50;;
48847;SDS011;36611;51.638;5.784;2023-02-19T00:41:29;24.63;;;13.77;;
48847;SDS011;36611;51.638;5.784;2023-02-19T00:43:59;25.58;;;13.52;;
48847;SDS011;36611;51.638;5.784;2023-02-19T00:46:29;21.30;;;12.75;;
48847;SDS011;36611;51.638;5.784;2023-02-19T00:49:04;23.95;;;12.60;;
48847;SDS011;36611;51.638;5.784;2023-02-19T00:51:34;25.15;;;12.25;;
48847;SDS011;36611;51.638;5.784;2023-02-19T00:54:03;22.13;;;12.48;;
48847;SDS011;36611;51.638;5.784;2023-02-19T00:56:31;22.95;;;12.88;;
48847;SDS011;36611;51.638;5.784;2023-02-19T00:58:58;19.65;;;11.93;;
48847;SDS011;36611;51.638;5.784;2023-02-19T01:01:25;19.10;;;11.13;;
48847;SDS011;36611;51.638;5.784;2023-02-19T01:03:52;22.00;;;10.55;;
48847;SDS011;36611;51.638;5.784;2023-02-19T01:06:19;21.02;;;11.55;;
48847;SDS011;36611;51.638;5.784;2023-02-19T01:08:46;21.48;;;10.65;;
48847;SDS011;36611;51.638;5.784;2023-02-19T01:11:14;22.65;;;10.10;;
48847;SDS011;36611;51.638;5.784;2023-02-19T01:13:41;18.25;;;10.43;;
48847;SDS011;36611;51.638;5.784;2023-02-19T01:18:40;20.17;;;10.32;;
48847;SDS011;36611;51.638;5.784;2023-02-19T01:21:08;23.33;;;10.75;;
48847;SDS011;36611;51.638;5.784;2023-02-19T01:23:38;21.65;;;10.25;;
48847;SDS011;36611;51.638;5.784;2023-02-19T01:26:06;20.27;;;10.30;;
48847;SDS011;36611;51.638;5.784;2023-02-19T01:28:34;18.67;;;9.85;;
48847;SDS011;36611;51.638;5.784;2023-02-19T01:31:04;19.70;;;10.05;;
48847;SDS011;36611;51.638;5.784;2023-02-19T01:33:33;20.38;;;10.15;;
48847;SDS011;36611;51.638;5.784;2023-02-19T01:36:03;20.20;;;9.02;;
48847;SDS011;36611;51.638;5.784;2023-02-19T01:38:31;17.38;;;9.52;;
48847;SDS011;36611;51.638;5.784;2023-02-19T01:40:59;16.35;;;8.75;;
48847;SDS011;36611;51.638;5.784;2023-02-19T01:43:28;14.63;;;8.45;;
48847;SDS011;36611;51.638;5.784;2023-02-19T01:45:56;20.33;;;8.90;;
48847;SDS011;36611;51.638;5.784;2023-02-19T01:48:28;17.00;;;8.88;;
48847;SDS011;36611;51.638;5.784;2023-02-19T01:51:04;20.10;;;9.05;;
48847;SDS011;36611;51.638;5.784;2023-02-19T01:53:36;17.60;;;8.13;;
48847;SDS011;36611;51.638;5.784;2023-02-19T01:56:05;13.27;;;7.60;;
48847;SDS011;36611;51.638;5.784;2023-02-19T01:58:35;16.33;;;7.80;;
48847;SDS011;36611;51.638;5.784;2023-02-19T02:01:03;21.45;;;8.77;;
48847;SDS011;36611;51.638;5.784;2023-02-19T02:03:33;20.38;;;8.02;;
48847;SDS011;36611;51.638;5.784;2023-02-19T02:08:28;18.65;;;8.35;;
48847;SDS011;36611;51.638;5.784;2023-02-19T02:11:18;15.57;;;8.07;;
48847;SDS011;36611;51.638;5.784;2023-02-19T02:13:46;16.85;;;8.35;;
48847;SDS011;36611;51.638;5.784;2023-02-19T02:16:16;22.02;;;8.57;;
48847;SDS011;36611;51.638;5.784;2023-02-19T02:27:29;17.98;;;8.85;;
48847;SDS011;36611;51.638;5.784;2023-02-19T02:32:50;20.00;;;8.35;;
48847;SDS011;36611;51.638;5.784;2023-02-19T02:35:31;22.50;;;8.73;;
48847;SDS011;36611;51.638;5.784;2023-02-19T02:38:03;22.45;;;10.20;;
48847;SDS011;36611;51.638;5.784;2023-02-19T02:40:33;19.70;;;8.30;;
48847;SDS011;36611;51.638;5.784;2023-02-19T02:43:00;19.23;;;8.35;;
48847;SDS011;36611;51.638;5.784;2023-02-19T02:45:31;18.50;;;8.68;;
48847;SDS011;36611;51.638;5.784;2023-02-19T02:51:17;21.40;;;8.23;;
48847;SDS011;36611;51.638;5.784;2023-02-19T02:54:00;18.98;;;8.20;;
48847;SDS011;36611;51.638;5.784;2023-02-19T02:56:52;20.85;;;8.00;;
48847;SDS011;36611;51.638;5.784;2023-02-19T02:59:23;23.77;;;9.18;;
48847;SDS011;36611;51.638;5.784;2023-02-19T03:02:03;21.73;;;8.38;;
48847;SDS011;36611;51.638;5.784;2023-02-19T03:07:55;18.52;;;7.60;;
48847;SDS011;36611;51.638;5.784;2023-02-19T03:10:28;24.50;;;8.65;;
48847;SDS011;36611;51.638;5.784;2023-02-19T03:13:02;21.77;;;8.27;;
48847;SDS011;36611;51.638;5.784;2023-02-19T03:15:53;18.92;;;8.07;;
48847;SDS011;36611;51.638;5.784;2023-02-19T03:18:43;19.50;;;7.05;;
48847;SDS011;36611;51.638;5.784;2023-02-19T03:21:33;17.88;;;6.40;;
48847;SDS011;36611;51.638;5.784;2023-02-19T03:24:06;21.92;;;7.15;;
48847;SDS011;36611;51.638;5.784;2023-02-19T03:26:55;21.42;;;6.68;;
48847;SDS011;36611;51.638;5.784;2023-02-19T03:29:28;17.23;;;6.88;;
48847;SDS011;36611;51.638;5.784;2023-02-19T03:32:03;16.13;;;6.00;;
48847;SDS011;36611;51.638;5.784;2023-02-19T03:34:35;18.17;;;6.45;;
48847;SDS011;36611;51.638;5.784;2023-02-19T03:37:48;18.35;;;6.40;;
48847;SDS011;36611;51.638;5.784;2023-02-19T03:39:58;13.43;;;5.53;;
48847;SDS011;36611;51.638;5.784;2023-02-19T03:45:10;17.83;;;5.70;;
48847;SDS011;36611;51.638;5.784;2023-02-19T03:50:51;19.65;;;5.43;;
48847;SDS011;36611;51.638;5.784;2023-02-19T03:56:28;12.65;;;5.68;;
48847;SDS011;36611;51.638;5.784;2023-02-19T03:59:08;12.85;;;5.85;;
48847;SDS011;36611;51.638;5.784;2023-02-19T04:01:45;20.40;;;5.38;;
48847;SDS011;36611;51.638;5.784;2023-02-19T04:04:21;16.33;;;5.70;;
48847;SDS011;36611;51.638;5.784;2023-02-19T04:06:54;16.70;;;5.15;;
48847;SDS011;36611;51.638;5.784;2023-02-19T04:09:25;11.77;;;5.45;;
48847;SDS011;36611;51.638;5.784;2023-02-19T04:12:02;15.82;;;5.60;;
48847;SDS011;36611;51.638;5.784;2023-02-19T04:14:34;13.65;;;5.20;;
48847;SDS011;36611;51.638;5.784;2023-02-19T04:17:06;16.20;;;4.60;;
48847;SDS011;36611;51.638;5.784;2023-02-19T04:19:38;14.88;;;5.53;;
48847;SDS011;36611;51.638;5.784;2023-02-19T04:22:07;13.25;;;4.80;;
48847;SDS011;36611;51.638;5.784;2023-02-19T04:24:37;16.38;;;5.97;;
48847;SDS011;36611;51.638;5.784;2023-02-19T04:27:08;23.63;;;6.13;;
48847;SDS011;36611;51.638;5.784;2023-02-19T04:29:36;16.83;;;5.60;;
48847;SDS011;36611;51.638;5.784;2023-02-19T04:32:04;21.13;;;6.15;;
48847;SDS011;36611;51.638;5.784;2023-02-19T04:34:32;16.92;;;5.57;;
48847;SDS011;36611;51.638;5.784;2023-02-19T04:36:58;12.55;;;5.05;;
48847;SDS011;36611;51.638;5.784;2023-02-19T04:39:25;15.85;;;5.57;;
48847;SDS011;36611;51.638;5.784;2023-02-19T04:41:52;14.57;;;5.35;;
48847;SDS011;36611;51.638;5.784;2023-02-19T04:44:19;12.98;;;4.78;;
48847;SDS011;36611;51.638;5.784;2023-02-19T04:46:46;12.77;;;4.47;;
48847;SDS011;36611;51.638;5.784;2023-02-19T04:49:12;14.65;;;4.40;;
48847;SDS011;36611;51.638;5.784;2023-02-19T04:51:39;16.75;;;4.45;;
48847;SDS011;36611;51.638;5.784;2023-02-19T04:54:06;14.85;;;4.90;;
48847;SDS011;36611;51.638;5.784;2023-02-19T04:56:33;13.23;;;3.95;;
48847;SDS011;36611;51.638;5.784;2023-02-19T04:59:00;15.88;;;4.72;;
48847;SDS011;36611;51.638;5.784;2023-02-19T05:01:26;18.77;;;4.53;;
48847;SDS011;36611;51.638;5.784;2023-02-19T05:03:53;14.52;;;4.38;;
48847;SDS011;36611;51.638;5.784;2023-02-19T05:06:20;13.48;;;4.40;;
48847;SDS011;36611;51.638;5.784;2023-02-19T05:08:47;16.45;;;4.78;;
48847;SDS011;36611;51.638;5.784;2023-02-19T05:11:14;15.27;;;5.30;;
48847;SDS011;36611;51.638;5.784;2023-02-19T05:13:40;18.52;;;4.97;;
48847;SDS011;36611;51.638;5.784;2023-02-19T05:16:11;17.63;;;4.43;;
48847;SDS011;36611;51.638;5.784;2023-02-19T05:18:42;17.15;;;4.72;;
48847;SDS011;36611;51.638;5.784;2023-02-19T05:21:09;14.05;;;5.28;;
48847;SDS011;36611;51.638;5.784;2023-02-19T05:23:37;18.70;;;5.93;;
48847;SDS011;36611;51.638;5.784;2023-02-19T05:26:08;17.42;;;6.38;;
48847;SDS011;36611;51.638;5.784;2023-02-19T05:28:38;15.02;;;5.57;;
48847;SDS011;36611;51.638;5.784;2023-02-19T05:31:05;11.68;;;5.30;;
48847;SDS011;36611;51.638;5.784;2023-02-19T05:33:34;27.65;;;6.38;;
48847;SDS011;36611;51.638;5.784;2023-02-19T05:36:09;17.52;;;6.03;;
48847;SDS011;36611;51.638;5.784;2023-02-19T05:38:37;14.45;;;5.82;;
48847;SDS011;36611;51.638;5.784;2023-02-19T05:41:07;17.70;;;6.53;;
48847;SDS011;36611;51.638;5.784;2023-02-19T05:43:38;18.90;;;7.68;;
48847;SDS011;36611;51.638;5.784;2023-02-19T05:46:06;18.35;;;6.70;;
48847;SDS011;36611;51.638;5.784;2023-02-19T05:48:33;16.75;;;6.50;;
48847;SDS011;36611;51.638;5.784;2023-02-19T05:51:01;17.98;;;5.97;;
48847;SDS011;36611;51.638;5.784;2023-02-19T05:53:33;15.05;;;5.45;;
48847;SDS011;36611;51.638;5.784;2023-02-19T05:56:00;15.32;;;5.10;;
48847;SDS011;36611;51.638;5.784;2023-02-19T05:58:27;21.63;;;6.00;;
48847;SDS011;36611;51.638;5.784;2023-02-19T06:00:54;13.57;;;5.55;;
48847;SDS011;36611;51.638;5.784;2023-02-19T06:03:21;14.18;;;4.85;;
48847;SDS011;36611;51.638;5.784;2023-02-19T06:05:48;15.13;;;5.00;;
48847;SDS011;36611;51.638;5.784;2023-02-19T06:08:15;15.05;;;4.65;;
48847;SDS011;36611;51.638;5.784;2023-02-19T06:10:42;17.50;;;5.22;;
48847;SDS011;36611;51.638;5.784;2023-02-19T06:13:09;18.38;;;6.50;;
48847;SDS011;36611;51.638;5.784;2023-02-19T06:15:36;14.77;;;5.32;;
48847;SDS011;36611;51.638;5.784;2023-02-19T06:18:03;14.10;;;5.95;;
48847;SDS011;36611;51.638;5.784;2023-02-19T06:20:30;18.15;;;6.18;;
48847;SDS011;36611;51.638;5.784;2023-02-19T06:22:56;14.95;;;5.80;;
48847;SDS011;36611;51.638;5.784;2023-02-19T06:25:23;16.15;;;6.90;;
48847;SDS011;36611;51.638;5.784;2023-02-19T06:27:49;13.30;;;6.50;;
48847;SDS011;36611;51.638;5.784;2023-02-19T06:30:16;16.38;;;7.03;;
48847;SDS011;36611;51.638;5.784;2023-02-19T06:32:43;19.02;;;6.05;;
48847;SDS011;36611;51.638;5.784;2023-02-19T06:35:09;14.18;;;5.90;;
48847;SDS011;36611;51.638;5.784;2023-02-19T06:37:36;16.17;;;6.35;;
48847;SDS011;36611;51.638;5.784;2023-02-19T06:40:03;17.58;;;6.55;;
48847;SDS011;36611;51.638;5.784;2023-02-19T06:42:30;14.40;;;7.03;;
48847;SDS011;36611;51.638;5.784;2023-02-19T06:44:58;12.43;;;6.20;;
48847;SDS011;36611;51.638;5.784;2023-02-19T06:47:24;14.93;;;6.78;;
48847;SDS011;36611;51.638;5.784;2023-02-19T06:49:51;16.17;;;6.50;;
48847;SDS011;36611;51.638;5.784;2023-02-19T06:52:17;14.40;;;6.30;;
48847;SDS011;36611;51.638;5.784;2023-02-19T06:54:44;18.95;;;7.63;;
48847;SDS011;36611;51.638;5.784;2023-02-19T06:57:11;15.57;;;6.53;;
48847;SDS011;36611;51.638;5.784;2023-02-19T06:59:37;16.85;;;5.95;;
48847;SDS011;36611;51.638;5.784;2023-02-19T07:02:04;15.05;;;6.93;;
48847;SDS011;36611;51.638;5.784;2023-02-19T07:04:30;17.45;;;7.15;;
48847;SDS011;36611;51.638;5.784;2023-02-19T07:06:57;15.48;;;6.57;;
48847;SDS011;36611;51.638;5.784;2023-02-19T07:09:25;16.25;;;6.00;;
48847;SDS011;36611;51.638;5.784;2023-02-19T07:11:53;16.58;;;6.63;;
48847;SDS011;36611;51.638;5.784;2023-02-19T07:14:20;17.73;;;6.20;;
48847;SDS011;36611;51.638;5.784;2023-02-19T07:16:47;15.07;;;6.05;;
48847;SDS011;36611;51.638;5.784;2023-02-19T07:19:14;17.30;;;6.65;;
48847;SDS011;36611;51.638;5.784;2023-02-19T07:21:41;15.90;;;6.57;;
48847;SDS011;36611;51.638;5.784;2023-02-19T07:24:08;15.90;;;6.30;;
48847;SDS011;36611;51.638;5.784;2023-02-19T07:26:35;12.88;;;5.70;;
48847;SDS011;36611;51.638;5.784;2023-02-19T07:29:02;10.77;;;6.32;;
48847;SDS011;36611;51.638;5.784;2023-02-19T07:31:29;15.68;;;6.43;;
48847;SDS011;36611;51.638;5.784;2023-02-19T07:33:56;18.92;;;6.35;;
48847;SDS011;36611;51.638;5.784;2023-02-19T07:36:23;17.23;;;6.93;;
48847;SDS011;36611;51.638;5.784;2023-02-19T07:38:56;19.08;;;6.53;;
48847;SDS011;36611;51.638;5.784;2023-02-19T07:41:24;19.15;;;6.72;;
48847;SDS011;36611;51.638;5.784;2023-02-19T07:43:55;16.35;;;6.40;;
48847;SDS011;36611;51.638;5.784;2023-02-19T07:46:22;15.60;;;6.30;;
48847;SDS011;36611;51.638;5.784;2023-02-19T07:48:49;15.55;;;6.82;;
48847;SDS011;36611;51.638;5.784;2023-02-19T07:51:17;15.48;;;6.82;;
48847;SDS011;36611;51.638;5.784;2023-02-19T07:53:45;11.00;;;6.68;;
48847;SDS011;36611;51.638;5.784;2023-02-19T07:56:13;15.45;;;6.70;;
48847;SDS011;36611;51.638;5.784;2023-02-19T07:58:40;16.17;;;7.35;;
48847;SDS011;36611;51.638;5.784;2023-02-19T08:01:08;13.63;;;6.60;;
48847;SDS011;36611;51.638;5.784;2023-02-19T08:04:05;13.27;;;6.40;;
48847;SDS011;36611;51.638;5.784;2023-02-19T08:06:32;12.88;;;7.57;;
48847;SDS011;36611;51.638;5.784;2023-02-19T08:08:59;15.32;;;7.18;;
48847;SDS011;36611;51.638;5.784;2023-02-19T08:11:25;12.15;;;6.10;;
48847;SDS011;36611;51.638;5.784;2023-02-19T08:14:11;13.23;;;7.22;;
48847;SDS011;36611;51.638;5.784;2023-02-19T08:16:37;11.55;;;7.38;;
48847;SDS011;36611;51.638;5.784;2023-02-19T08:19:08;10.73;;;7.03;;
48847;SDS011;36611;51.638;5.784;2023-02-19T08:21:35;11.32;;;6.68;;
48847;SDS011;36611;51.638;5.784;2023-02-19T08:24:03;11.40;;;7.32;;
48847;SDS011;36611;51.638;5.784;2023-02-19T08:26:31;16.00;;;7.35;;
48847;SDS011;36611;51.638;5.784;2023-02-19T08:28:57;16.23;;;7.45;;
48847;SDS011;36611;51.638;5.784;2023-02-19T08:31:24;17.27;;;7.43;;
48847;SDS011;36611;51.638;5.784;2023-02-19T08:33:53;11.38;;;7.38;;
48847;SDS011;36611;51.638;5.784;2023-02-19T08:36:20;14.15;;;8.40;;
48847;SDS011;36611;51.638;5.784;2023-02-19T08:38:46;14.50;;;8.60;;
48847;SDS011;36611;51.638;5.784;2023-02-19T08:41:13;12.25;;;8.07;;
48847;SDS011;36611;51.638;5.784;2023-02-19T08:43:41;14.63;;;8.73;;
48847;SDS011;36611;51.638;5.784;2023-02-19T08:46:08;13.70;;;8.35;;
48847;SDS011;36611;51.638;5.784;2023-02-19T08:48:36;17.30;;;8.38;;
48847;SDS011;36611;51.638;5.784;2023-02-19T08:51:05;15.68;;;8.88;;
48847;SDS011;36611;51.638;5.784;2023-02-19T08:53:34;15.32;;;9.15;;
48847;SDS011;36611;51.638;5.784;2023-02-19T08:56:12;14.15;;;9.50;;
48847;SDS011;36611;51.638;5.784;2023-02-19T08:58:41;12.60;;;7.97;;
48847;SDS011;36611;51.638;5.784;2023-02-19T09:01:09;14.73;;;8.70;;
48847;SDS011;36611;51.638;5.784;2023-02-19T09:03:38;17.30;;;8.55;;
48847;SDS011;36611;51.638;5.784;2023-02-19T09:06:04;17.85;;;9.68;;
48847;SDS011;36611;51.638;5.784;2023-02-19T09:08:31;14.00;;;8.68;;
48847;SDS011;36611;51.638;5.784;2023-02-19T09:10:59;18.42;;;9.05;;
48847;SDS011;36611;51.638;5.784;2023-02-19T09:13:26;13.73;;;8.95;;
48847;SDS011;36611;51.638;5.784;2023-02-19T09:15:53;16.42;;;8.98;;
48847;SDS011;36611;51.638;5.784;2023-02-19T09:18:22;16.48;;;9.50;;
48847;SDS011;36611;51.638;5.784;2023-02-19T09:20:49;14.18;;;8.80;;
48847;SDS011;36611;51.638;5.784;2023-02-19T09:23:16;12.73;;;7.72;;
48847;SDS011;36611;51.638;5.784;2023-02-19T09:25:43;15.18;;;7.88;;
48847;SDS011;36611;51.638;5.784;2023-02-19T09:28:10;9.52;;;6.70;;
48847;SDS011;36611;51.638;5.784;2023-02-19T09:30:36;10.30;;;7.00;;
48847;SDS011;36611;51.638;5.784;2023-02-19T09:33:03;9.15;;;6.75;;
48847;SDS011;36611;51.638;5.784;2023-02-19T09:35:30;10.40;;;6.38;;
48847;SDS011;36611;51.638;5.784;2023-02-19T09:37:58;10.68;;;6.22;;
48847;SDS011;36611;51.638;5.784;2023-02-19T09:40:28;9.32;;;6.13;;
48847;SDS011;36611;51.638;5.784;2023-02-19T09:42:55;6.30;;;5.70;;
48847;SDS011;36611;51.638;5.784;2023-02-19T09:45:24;10.73;;;5.75;;
48847;SDS011;36611;51.638;5.784;2023-02-19T09:47:52;6.90;;;5.10;;
48847;SDS011;36611;51.638;5.784;2023-02-19T09:50:22;7.60;;;5.10;;
48847;SDS011;36611;51.638;5.784;2023-02-19T09:52:56;8.32;;;5.32;;
48847;SDS011;36611;51.638;5.784;2023-02-19T09:55:32;7.15;;;5.35;;
48847;SDS011;36611;51.638;5.784;2023-02-19T09:58:07;8.60;;;6.38;;
48847;SDS011;36611;51.638;5.784;2023-02-19T10:00:45;12.27;;;6.30;;
48847;SDS011;36611;51.638;5.784;2023-02-19T10:03:27;10.00;;;6.88;;
48847;SDS011;36611;51.638;5.784;2023-02-19T10:06:05;9.85;;;6.20;;
48847;SDS011;36611;51.638;5.784;2023-02-19T10:08:38;10.15;;;6.00;;
48847;SDS011;36611;51.638;5.784;2023-02-19T10:11:05;9.88;;;6.00;;
48847;SDS011;36611;51.638;5.784;2023-02-19T10:16:10;12.43;;;5.78;;
48847;SDS011;36611;51.638;5.784;2023-02-19T10:18:43;9.27;;;6.55;;
48847;SDS011;36611;51.638;5.784;2023-02-19T10:21:13;9.15;;;5.68;;
48847;SDS011;36611;51.638;5.784;2023-02-19T10:23:45;9.02;;;4.68;;
48847;SDS011;36611;51.638;5.784;2023-02-19T10:26:14;10.50;;;4.93;;
48847;SDS011;36611;51.638;5.784;2023-02-19T10:28:41;8.57;;;5.13;;
48847;SDS011;36611;51.638;5.784;2023-02-19T10:31:18;8.27;;;5.50;;
48847;SDS011;36611;51.638;5.784;2023-02-19T10:33:48;9.68;;;5.25;;
48847;SDS011;36611;51.638;5.784;2023-02-19T10:41:47;8.70;;;5.15;;
48847;SDS011;36611;51.638;5.784;2023-02-19T10:44:29;7.05;;;5.20;;
48847;SDS011;36611;51.638;5.784;2023-02-19T10:47:05;6.93;;;4.22;;
48847;SDS011;36611;51.638;5.784;2023-02-19T10:49:34;5.78;;;4.05;;
48847;SDS011;36611;51.638;5.784;2023-02-19T10:52:11;7.85;;;4.38;;
48847;SDS011;36611;51.638;5.784;2023-02-19T10:54:43;5.22;;;3.75;;
48847;SDS011;36611;51.638;5.784;2023-02-19T10:59:51;7.63;;;3.60;;
48847;SDS011;36611;51.638;5.784;2023-02-19T11:02:38;6.10;;;3.63;;
48847;SDS011;36611;51.638;5.784;2023-02-19T11:07:35;6.03;;;3.70;;
48847;SDS011;36611;51.638;5.784;2023-02-19T11:10:03;7.43;;;4.10;;
48847;SDS011;36611;51.638;5.784;2023-02-19T11:12:32;9.73;;;3.95;;
48847;SDS011;36611;51.638;5.784;2023-02-19T11:15:01;6.03;;;4.43;;
48847;SDS011;36611;51.638;5.784;2023-02-19T11:17:54;6.75;;;4.20;;
48847;SDS011;36611;51.638;5.784;2023-02-19T11:20:24;6.25;;;4.57;;
48847;SDS011;36611;51.638;5.784;2023-02-19T11:22:51;6.65;;;4.47;;
48847;SDS011;36611;51.638;5.784;2023-02-19T11:25:24;5.88;;;4.05;;
48847;SDS011;36611;51.638;5.784;2023-02-19T11:28:00;8.45;;;4.43;;
48847;SDS011;36611;51.638;5.784;2023-02-19T11:35:43;9.20;;;5.60;;
48847;SDS011;36611;51.638;5.784;2023-02-19T11:38:15;8.05;;;5.25;;
48847;SDS011;36611;51.638;5.784;2023-02-19T11:46:26;9.65;;;5.50;;
48847;SDS011;36611;51.638;5.784;2023-02-19T11:54:51;10.32;;;5.22;;
48847;SDS011;36611;51.638;5.784;2023-02-19T11:57:33;10.50;;;4.40;;
48847;SDS011;36611;51.638;5.784;2023-02-19T12:00:21;8.48;;;3.85;;
48847;SDS011;36611;51.638;5.784;2023-02-19T12:13:53;7.85;;;4.95;;
48847;SDS011;36611;51.638;5.784;2023-02-19T12:16:29;7.35;;;4.38;;
48847;SDS011;36611;51.638;5.784;2023-02-19T12:19:21;6.70;;;4.60;;
48847;SDS011;36611;51.638;5.784;2023-02-19T12:25:00;7.97;;;4.88;;
48847;SDS011;36611;51.638;5.784;2023-02-19T12:27:54;7.20;;;4.57;;
48847;SDS011;36611;51.638;5.784;2023-02-19T12:33:33;8.70;;;4.88;;
48847;SDS011;36611;51.638;5.784;2023-02-19T12:39:06;7.88;;;4.40;;
48847;SDS011;36611;51.638;5.784;2023-02-19T12:42:02;5.95;;;4.00;;
48847;SDS011;36611;51.638;5.784;2023-02-19T12:47:07;6.13;;;3.50;;
48847;SDS011;36611;51.638;5.784;2023-02-19T12:49:47;6.05;;;3.78;;
48847;SDS011;36611;51.638;5.784;2023-02-19T12:52:24;6.10;;;3.60;;
48847;SDS011;36611;51.638;5.784;2023-02-19T12:54:53;6.75;;;3.53;;
48847;SDS011;36611;51.638;5.784;2023-02-19T12:57:26;9.25;;;3.58;;
48847;SDS011;36611;51.638;5.784;2023-02-19T13:02:40;7.28;;;3.78;;
48847;SDS011;36611;51.638;5.784;2023-02-19T13:05:19;7.00;;;3.53;;
48847;SDS011;36611;51.638;5.784;2023-02-19T13:10:52;4.65;;;4.07;;
48847;SDS011;36611;51.638;5.784;2023-02-19T13:13:27;5.63;;;4.03;;
48847;SDS011;36611;51.638;5.784;2023-02-19T13:16:06;8.52;;;5.13;;
48847;SDS011;36611;51.638;5.784;2023-02-19T13:18:43;7.25;;;4.90;;
48847;SDS011;36611;51.638;5.784;2023-02-19T13:21:14;5.45;;;4.55;;
48847;SDS011;36611;51.638;5.784;2023-02-19T13:24:05;5.35;;;4.10;;
48847;SDS011;36611;51.638;5.784;2023-02-19T13:32:27;2.45;;;1.75;;
48847;SDS011;36611;51.638;5.784;2023-02-19T13:37:38;1.85;;;1.30;;
48847;SDS011;36611;51.638;5.784;2023-02-19T13:40:21;3.05;;;1.63;;
48847;SDS011;36611;51.638;5.784;2023-02-19T13:43:24;2.33;;;1.40;;
48847;SDS011;36611;51.638;5.784;2023-02-19T13:46:01;2.28;;;1.20;;
48847;SDS011;36611;51.638;5.784;2023-02-19T14:04:21;3.30;;;2.03;;
48847;SDS011;36611;51.638;5.784;2023-02-19T14:14:34;3.63;;;1.90;;
48847;SDS011;36611;51.638;5.784;2023-02-19T14:28:00;4.32;;;2.78;;
48847;SDS011;36611;51.638;5.784;2023-02-19T14:30:28;5.32;;;3.95;;
48847;SDS011;36611;51.638;5.784;2023-02-19T14:32:57;10.40;;;4.60;;
48847;SDS011;36611;51.638;5.784;2023-02-19T14:35:40;8.05;;;5.20;;
48847;SDS011;36611;51.638;5.784;2023-02-19T14:38:13;7.85;;;5.88;;
48847;SDS011;36611;51.638;5.784;2023-02-19T14:40:43;9.02;;;6.40;;
48847;SDS011;36611;51.638;5.784;2023-02-19T14:43:13;7.78;;;5.82;;
48847;SDS011;36611;51.638;5.784;2023-02-19T14:45:43;6.22;;;5.13;;
48847;SDS011;36611;51.638;5.784;2023-02-19T14:48:16;8.60;;;4.80;;
48847;SDS011;36611;51.638;5.784;2023-02-19T14:50:48;7.57;;;4.93;;
48847;SDS011;36611;51.638;5.784;2023-02-19T14:53:17;7.65;;;4.80;;
48847;SDS011;36611;51.638;5.784;2023-02-19T14:55:46;7.13;;;4.63;;
48847;SDS011;36611;51.638;5.784;2023-02-19T14:58:19;10.52;;;4.50;;
48847;SDS011;36611;51.638;5.784;2023-02-19T15:00:49;8.10;;;4.72;;
48847;SDS011;36611;51.638;5.784;2023-02-19T15:03:23;6.47;;;3.63;;
48847;SDS011;36611;51.638;5.784;2023-02-19T15:05:56;4.32;;;3.75;;
48847;SDS011;36611;51.638;5.784;2023-02-19T15:08:28;4.38;;;3.17;;
48847;SDS011;36611;51.638;5.784;2023-02-19T15:10:59;4.35;;;2.58;;
48847;SDS011;36611;51.638;5.784;2023-02-19T15:13:28;4.13;;;2.92;;
48847;SDS011;36611;51.638;5.784;2023-02-19T15:15:56;4.78;;;2.72;;
48847;SDS011;36611;51.638;5.784;2023-02-19T15:18:24;4.15;;;2.83;;
48847;SDS011;36611;51.638;5.784;2023-02-19T15:21:01;6.57;;;2.80;;
48847;SDS011;36611;51.638;5.784;2023-02-19T15:23:31;10.45;;;3.10;;
48847;SDS011;36611;51.638;5.784;2023-02-19T15:26:01;6.60;;;3.40;;
48847;SDS011;36611;51.638;5.784;2023-02-19T15:28:29;4.25;;;3.63;;
48847;SDS011;36611;51.638;5.784;2023-02-19T15:33:25;5.43;;;3.83;;
48847;SDS011;36611;51.638;5.784;2023-02-19T15:35:54;5.70;;;3.85;;
48847;SDS011;36611;51.638;5.784;2023-02-19T15:38:23;7.40;;;3.97;;
48847;SDS011;36611;51.638;5.784;2023-02-19T15:40:51;6.72;;;4.50;;
48847;SDS011;36611;51.638;5.784;2023-02-19T15:43:19;9.13;;;5.53;;
48847;SDS011;36611;51.638;5.784;2023-02-19T15:45:48;11.32;;;5.20;;
48847;SDS011;36611;51.638;5.784;2023-02-19T15:48:18;5.95;;;4.63;;
48847;SDS011;36611;51.638;5.784;2023-02-19T15:50:52;7.63;;;5.07;;
48847;SDS011;36611;51.638;5.784;2023-02-19T15:53:30;9.45;;;5.18;;
48847;SDS011;36611;51.638;5.784;2023-02-19T15:56:01;7.70;;;5.15;;
48847;SDS011;36611;51.638;5.784;2023-02-19T15:58:37;6.50;;;4.70;;
48847;SDS011;36611;51.638;5.784;2023-02-19T16:01:24;7.30;;;5.03;;
48847;SDS011;36611;51.638;5.784;2023-02-19T16:04:02;6.88;;;5.32;;
48847;SDS011;36611;51.638;5.784;2023-02-19T16:06:29;8.77;;;5.43;;
48847;SDS011;36611;51.638;5.784;2023-02-19T16:09:00;7.28;;;4.47;;
48847;SDS011;36611;51.638;5.784;2023-02-19T16:22:18;4.65;;;3.50;;
48847;SDS011;36611;51.638;5.784;2023-02-19T16:24:48;4.30;;;3.53;;
48847;SDS011;36611;51.638;5.784;2023-02-19T16:32:35;4.68;;;3.28;;
48847;SDS011;36611;51.638;5.784;2023-02-19T16:35:02;4.00;;;3.10;;
48847;SDS011;36611;51.638;5.784;2023-02-19T16:37:34;4.60;;;3.53;;
48847;SDS011;36611;51.638;5.784;2023-02-19T16:45:28;4.50;;;3.47;;
48847;SDS011;36611;51.638;5.784;2023-02-19T16:47:56;4.28;;;3.83;;
48847;SDS011;36611;51.638;5.784;2023-02-19T16:50:24;5.43;;;3.65;;
48847;SDS011;36611;51.638;5.784;2023-02-19T16:52:59;5.25;;;3.92;;
48847;SDS011;36611;51.638;5.784;2023-02-19T16:55:28;5.35;;;3.75;;
48847;SDS011;36611;51.638;5.784;2023-02-19T16:58:02;6.40;;;3.83;;
48847;SDS011;36611;51.638;5.784;2023-02-19T17:00:30;4.47;;;3.78;;
48847;SDS011;36611;51.638;5.784;2023-02-19T17:02:57;5.53;;;3.88;;
48847;SDS011;36611;51.638;5.784;2023-02-19T17:05:28;6.68;;;4.40;;
48847;SDS011;36611;51.638;5.784;2023-02-19T17:07:57;4.32;;;3.67;;
48847;SDS011;36611;51.638;5.784;2023-02-19T17:10:25;4.22;;;3.83;;
48847;SDS011;36611;51.638;5.784;2023-02-19T17:12:53;4.30;;;3.70;;
48847;SDS011;36611;51.638;5.784;2023-02-19T17:15:21;4.50;;;3.95;;
48847;SDS011;36611;51.638;5.784;2023-02-19T17:17:48;5.65;;;4.50;;
48847;SDS011;36611;51.638;5.784;2023-02-19T17:22:41;4.93;;;4.00;;
48847;SDS011;36611;51.638;5.784;2023-02-19T17:25:08;5.00;;;3.95;;
48847;SDS011;36611;51.638;5.784;2023-02-19T17:27:35;4.65;;;3.95;;
48847;SDS011;36611;51.638;5.784;2023-02-19T17:30:02;10.38;;;4.45;;
48847;SDS011;36611;51.638;5.784;2023-02-19T17:32:35;4.10;;;3.38;;
48847;SDS011;36611;51.638;5.784;2023-02-19T17:35:02;4.47;;;3.45;;
48847;SDS011;36611;51.638;5.784;2023-02-19T17:37:28;5.65;;;3.58;;
48847;SDS011;36611;51.638;5.784;2023-02-19T17:39:55;4.80;;;3.55;;
48847;SDS011;36611;51.638;5.784;2023-02-19T17:42:21;6.18;;;3.90;;